Etusivu
METAR-TAF:

METAR-TAF

Lentoasemat :

Gibraltar, Gibraltar

Gibraltarin lentoasema

Leveyspiiri: 36-09N, Pituuspiiri: 005-21W, korkeus merenpinnasta: 5 m

Tämänhetkinen sää

Tämä raportti tehtiin 58 minuuttia sitten, kello 23.50 UTC
Tuuli 9 kn idästä/koillisesta
Lämpötila 16°C
Kosteus 82%
Ilmanpaine 1025 hPa
Näkyvyys 10 km tai enemmän

METAR: LXGB 292350Z AUTO 07009KT 9999 // NCD 16/13 Q1025

Aika: 02:48 (00:48 UTC)

Sääennuste

Tämä raportti tehtiin 8 tuntia ja 6 minuuttia sitten, kello 16.42 UTC
Ennuste voimassa 29. päivästä klo 18 UTC - 29. päivään klo 22 UTC
Tuuli 12 kn idästä
Näkyvyys 10 km tai enemmän
Muutamia pilviä 1300 ft:n korkeudessa

TAF: LXGB 291642Z 2918/2922 09012KT 9999 FEW013

Säähavainnot ja -ennusteet yli 4000 lentoasemalta (METAR- ja TAF-raportit).

Käytössä olevat sääasemat on merkitty karttaan keltaisilla ja punaisilla pisteillä.

Aseta hiiri pisteen päälle nähdäksesi sääaseman nimen.

Klikkaa sitten nähdäksesi säähavainnot ja -ennusteet.

Kartan vaihtaminen: klikkaa mustalla rastilla varustettuja vihreitä pisteitä, niin voit zoomata sisään; viivalla varustettua vihreää pistettä, niin voit zoomata ulos tai vihreitä nuolia, niin pääset viereisille kartoille.


METAR-TAF: